Time;durP1;ratioP1;P1;durP2;ratioP2;P2;SDS_P1;SDS_P2;PMS_P1;PMS_P2;Temp;Humidity;BMP_temperature;BMP_pressure;BME280_temperature;BME280_humidity;BME280_pressure;Samples;Min_cycle;Max_cycle;Signal;HPM_P1;HPM_P2
2022/02/10 00:18:26;;;;;;;3.87;3.47;;;14.60;99.90;;;15.04;49.89;101720.72;4940133;28;97397;-62
2022/02/10 00:21:10;;;;;;;5.23;4.10;;;14.90;99.60;;;15.12;49.55;101732.81;4952860;28;97041;-60
2022/02/10 00:34:31;;;;;;;5.97;4.13;;;14.70;99.40;;;15.06;49.24;101717.13;4953304;28;102152;-59
2022/02/10 00:42:00;;;;;;;5.10;4.07;;;14.80;98.70;;;15.10;49.18;101716.06;4936046;28;97344;-61
2022/02/10 00:44:26;;;;;;;5.37;4.20;;;14.90;99.00;;;15.12;49.07;101714.22;4960118;28;101032;-61
2022/02/10 00:46:52;;;;;;;3.93;3.63;;;14.90;99.00;;;15.15;49.33;101711.44;4933641;28;99183;-62
2022/02/10 00:49:18;;;;;;;4.57;3.80;;;14.90;99.30;;;15.16;48.88;101713.16;4957706;28;97281;-56
2022/02/10 00:51:44;;;;;;;3.97;3.60;;;14.90;98.20;;;15.17;49.07;101709.56;4958927;28;97276;-58
2022/02/10 00:54:11;;;;;;;5.27;4.10;;;14.90;99.10;;;15.18;48.89;101706.00;4956288;28;103076;-62
2022/02/10 00:56:37;;;;;;;6.90;4.40;;;14.90;99.10;;;15.21;48.99;101704.16;4940811;28;97249;-60
2022/02/10 01:31:50;;;;;;;4.57;3.73;;;13.20;99.60;;;14.08;51.62;101692.28;4952646;28;97567;-62
2022/02/10 01:34:16;;;;;;;4.37;3.90;;;13.20;99.90;;;14.10;51.62;101685.13;4924566;28;97352;-59
2022/02/10 01:36:42;;;;;;;5.40;3.70;;;13.30;99.90;;;14.17;51.45;101678.69;4960025;28;97603;-62
2022/02/10 01:39:08;;;;;;;5.43;4.50;;;13.40;99.90;;;14.23;51.00;101676.69;4959528;28;113632;-62
2022/02/10 01:58:13;;;;;;;4.23;3.17;;;14.50;99.60;;;14.87;49.71;101666.44;4921481;28;99569;-61
2022/02/10 02:03:26;;;;;;;3.77;3.40;;;14.60;98.60;;;14.94;49.49;101659.13;4913995;28;97548;-61
2022/02/10 02:06:00;;;;;;;4.67;3.63;;;14.60;98.10;;;15.03;49.02;101640.16;4914563;28;100724;-58
2022/02/10 02:08:28;;;;;;;4.27;3.43;;;14.80;98.40;;;15.12;48.97;101641.59;4934210;28;98512;-60
2022/02/10 02:10:55;;;;;;;4.43;3.63;;;14.90;98.80;;;15.22;48.62;101627.03;4915061;28;97149;-62
2022/02/10 02:13:22;;;;;;;5.07;3.43;;;15.10;98.50;;;15.34;48.47;101620.38;4920080;28;100220;-61
2022/02/10 02:15:51;;;;;;;3.80;3.37;;;15.30;98.00;;;15.40;48.17;101625.41;4912805;28;98216;-59
2022/02/10 02:18:17;;;;;;;4.57;3.47;;;15.40;98.00;;;15.49;47.93;101619.75;4930595;28;99492;-62
2022/02/10 02:20:47;;;;;;;4.63;3.60;;;15.50;97.80;;;15.58;47.56;101619.34;4945644;28;98008;-62
2022/02/10 02:23:15;;;;;;;4.13;3.60;;;15.60;97.50;;;15.66;47.56;101611.97;4943290;28;97875;-61
2022/02/10 02:25:41;;;;;;;3.80;3.40;;;15.70;97.20;;;15.73;47.30;101618.75;4949657;28;97663;-60
2022/02/10 02:28:10;;;;;;;3.67;3.20;;;15.80;97.20;;;15.75;47.37;101610.69;4958480;28;97797;-62
2022/02/10 02:30:42;;;;;;;4.00;3.63;;;15.80;97.00;;;15.76;47.06;101607.09;4960037;28;99306;-62
2022/02/10 02:36:23;;;;;;;4.50;3.60;;;15.90;97.10;;;15.84;47.24;101610.31;4941624;28;96943;-61
2022/02/10 03:06:20;;;;;;;7.57;5.17;;;14.20;98.30;;;14.78;49.39;101567.66;4960216;28;98308;-62
2022/02/10 03:08:52;;;;;;;4.03;3.73;;;14.10;97.50;;;14.70;49.85;101564.41;4964441;28;98171;-61
2022/02/10 03:11:19;;;;;;;4.50;3.83;;;14.00;98.00;;;14.65;49.91;101553.13;4940162;28;101996;-61
2022/02/10 03:13:56;;;;;;;4.57;3.80;;;13.90;98.50;;;14.58;50.01;101550.69;4963650;28;96874;-61
2022/02/10 03:16:46;;;;;;;4.37;3.37;;;13.90;98.20;;;14.51;50.13;101554.50;4960415;28;98926;-61
2022/02/10 03:22:14;;;;;;;4.37;3.40;;;13.80;99.50;;;14.41;50.38;101539.81;4954910;28;97347;-61
2022/02/10 04:03:11;;;;;;;3.60;3.30;;;14.20;98.50;;;14.59;49.98;101491.34;4960682;28;97595;-62
2022/02/10 04:13:22;;;;;;;4.20;3.30;;;13.80;97.10;;;14.37;50.16;101470.97;4919273;28;96829;-62
2022/02/10 04:16:06;;;;;;;3.40;3.10;;;13.60;98.60;;;14.27;50.54;101475.75;4932968;28;99287;-60
2022/02/10 04:24:17;;;;;;;3.70;3.17;;;13.20;99.20;;;14.04;51.30;101481.09;4938071;28;98882;-59
2022/02/10 04:32:18;;;;;;;3.73;3.20;;;13.40;99.90;;;14.17;51.06;101474.38;4934793;28;98291;-59
2022/02/10 04:38:21;;;;;;;3.43;3.13;;;13.60;98.30;;;14.16;50.67;101483.25;4936487;28;100489;-62
2022/02/10 04:43:42;;;;;;;2.50;2.30;;;13.50;98.40;;;14.16;51.01;101476.16;4916284;28;97629;-62
2022/02/10 04:54:58;;;;;;;3.47;3.03;;;13.80;99.60;;;14.33;50.54;101478.19;4929147;28;97877;-62
2022/02/10 05:00:29;;;;;;;3.07;2.60;;;13.90;99.90;;;14.50;50.12;101477.59;4919143;28;97787;-61
2022/02/10 05:17:23;;;;;;;3.70;3.20;;;14.20;98.10;;;14.63;49.66;101467.34;4916584;28;97868;-60
2022/02/10 05:19:24;;;;;;;3.63;3.03;;;14.10;98.90;;;14.63;49.61;101456.72;4920217;28;100042;-61
2022/02/10 05:24:40;;;;;;;3.53;3.23;;;14.10;99.10;;;14.68;49.57;101462.72;4938323;28;98094;-61
2022/02/10 05:37:41;;;;;;;4.00;2.93;;;14.20;98.30;;;14.69;49.47;101461.78;4921429;28;99401;-61
2022/02/10 05:40:15;;;;;;;4.37;3.40;;;14.10;98.10;;;14.68;49.55;101460.06;4927864;28;98355;-60
2022/02/10 05:45:20;;;;;;;3.97;2.90;;;14.00;97.30;;;14.58;49.87;101465.72;4934454;28;97208;-61
2022/02/10 05:48:05;;;;;;;4.30;3.10;;;13.90;98.90;;;14.52;49.87;101471.28;4918974;28;97101;-67
2022/02/10 05:56:09;;;;;;;4.53;3.60;;;13.80;99.30;;;14.49;49.92;101459.94;4952530;28;102237;-60
2022/02/10 06:47:56;;;;;;;3.53;3.20;;;14.60;98.00;;;15.04;48.74;101471.81;4935681;28;102280;-59
2022/02/10 06:53:03;;;;;;;3.70;3.30;;;14.90;98.20;;;15.15;48.33;101482.88;4939280;28;96956;-61
2022/02/10 06:58:27;;;;;;;3.93;3.20;;;15.10;97.60;;;15.25;48.04;101482.50;4953155;28;97253;-61
2022/02/10 07:04:29;;;;;;;3.33;3.03;;;15.20;97.80;;;15.37;47.77;101482.00;4926335;28;97026;-61
2022/02/10 07:17:16;;;;;;;5.37;3.67;;;14.80;97.30;;;15.12;48.27;101500.75;4916144;28;99243;-60
2022/02/10 07:53:07;;;;;;;4.67;3.40;;;14.40;98.40;;;14.91;48.87;101523.75;4949913;28;97415;-61
2022/02/10 08:55:46;;;;;;;6.37;4.00;;;13.80;99.00;;;14.46;50.18;101569.72;4917514;28;98112;-58
2022/02/10 09:14:41;;;;;;;8.67;6.20;;;13.90;99.40;;;14.24;50.48;101572.28;4841161;28;99469;-62
2022/02/10 09:20:20;;;;;;;6.10;3.90;;;14.00;99.90;;;14.56;49.87;101586.19;4915430;28;101801;-61
2022/02/10 09:23:28;;;;;;;5.00;3.57;;;14.30;99.20;;;14.70;49.65;101567.94;4925167;28;99917;-59
2022/02/10 09:47:33;;;;;;;5.20;3.30;;;14.50;98.90;;;14.88;49.22;101579.63;4951991;28;97451;-61
2022/02/10 10:00:59;;;;;;;15.17;10.37;;;13.40;99.90;;;13.99;51.09;101596.16;4930302;28;97542;-62
2022/02/10 10:03:42;;;;;;;14.13;9.73;;;13.50;99.90;;;14.08;50.00;101591.47;4914806;28;101580;-62
2022/02/10 10:06:20;;;;;;;16.83;10.20;;;13.70;99.70;;;13.94;51.64;101595.47;4900448;28;99717;-61
2022/02/10 10:09:06;;;;;;;15.43;11.03;;;13.50;99.90;;;13.98;51.45;101604.19;4933688;28;99469;-63
2022/02/10 10:12:10;;;;;;;7.43;5.80;;;13.60;99.90;;;14.22;50.80;101595.34;4930637;28;97546;-63
2022/02/10 10:15:09;;;;;;;13.43;9.00;;;14.00;99.90;;;14.35;50.75;101600.22;4934398;28;101384;-61
2022/02/10 10:20:40;;;;;;;12.97;8.57;;;14.40;99.10;;;14.61;49.92;101601.94;4898699;28;98150;-62
2022/02/10 10:23:23;;;;;;;15.83;10.97;;;14.40;99.30;;;14.58;49.30;101603.78;4948925;28;97515;-63
2022/02/10 10:26:13;;;;;;;8.33;5.63;;;14.50;98.70;;;14.65;49.83;101592.94;4946871;28;97330;-60
2022/02/10 10:56:37;;;;;;;5.83;4.70;;;13.60;99.90;;;14.25;51.15;101589.94;4904886;28;98820;-58
2022/02/10 10:59:34;;;;;;;13.57;10.00;;;13.70;99.90;;;14.24;51.51;101584.69;4920313;28;98854;-61
2022/02/10 11:38:45;;;;;;;14.90;8.43;;;14.40;99.80;;;14.62;50.74;101603.69;4905314;28;97295;-58
2022/02/10 11:47:13;;;;;;;9.40;6.60;;;14.70;99.50;;;14.75;50.89;101599.63;4933974;28;101124;-60
2022/02/10 12:29:15;;;;;;;12.87;8.77;;;15.10;98.70;;;15.21;49.27;101603.16;4949880;28;98773;-62
2022/02/10 13:32:51;;;;;;;4.77;4.27;;;14.70;99.90;;;14.59;51.48;101578.97;4879742;28;99038;-59
2022/02/10 14:13:29;;;;;;;10.10;6.40;;;15.00;99.20;;;15.00;50.69;101588.94;4864534;28;104849;-62
2022/02/10 14:18:28;;;;;;;6.03;5.43;;;14.90;99.50;;;15.01;50.42;101591.53;4910742;28;98927;-62
2022/02/10 14:26:08;;;;;;;6.60;6.00;;;14.70;99.90;;;14.98;50.48;101596.97;4858474;28;99675;-63
2022/02/10 14:28:34;;;;;;;6.37;5.77;;;14.60;99.90;;;14.94;50.60;101608.63;4902485;28;101075;-62
2022/02/10 14:31:04;;;;;;;7.27;6.57;;;14.60;99.90;;;14.92;50.35;101597.22;4915306;28;103000;-61
2022/02/10 14:33:33;;;;;;;5.80;5.03;;;14.60;99.90;;;14.92;50.40;101602.53;4910833;28;101834;-58
2022/02/10 14:36:20;;;;;;;7.57;5.77;;;14.60;99.90;;;14.96;50.33;101600.59;4899298;28;97885;-60
2022/02/10 15:50:05;;;;;;;5.50;4.97;;;14.80;99.90;;;15.09;50.37;101623.13;4916084;28;100279;-58
2022/02/10 15:55:53;;;;;;;4.57;4.17;;;14.90;99.90;;;15.14;50.41;101629.09;4915806;28;97293;-61
2022/02/10 16:13:03;;;;;;;3.30;3.00;;;14.10;99.90;;;14.62;52.01;101630.25;4925152;28;100094;-62
2022/02/10 16:17:45;;;;;;;3.13;2.83;;;13.80;99.90;;;14.43;52.20;101635.31;4966364;28;97816;-59
2022/02/10 16:20:18;;;;;;;2.43;2.00;;;13.80;99.90;;;14.38;52.22;101624.88;4958709;28;98753;-59
2022/02/10 16:22:58;;;;;;;2.83;2.60;;;13.70;99.90;;;14.40;52.10;101620.38;4959640;28;98055;-60
2022/02/10 16:25:29;;;;;;;3.67;3.10;;;13.80;99.90;;;14.41;52.25;101632.72;4945049;28;99475;-59
2022/02/10 16:28:09;;;;;;;2.87;2.43;;;13.80;99.90;;;14.46;52.23;101641.41;4928979;28;98308;-59
2022/02/10 16:30:39;;;;;;;3.47;2.10;;;13.90;99.90;;;14.55;52.09;101635.75;4932082;28;96953;-59
2022/02/10 16:33:06;;;;;;;1.90;1.70;;;14.10;99.90;;;14.53;51.83;101632.31;4945434;28;97560;-62
2022/02/10 16:35:32;;;;;;;4.90;3.30;;;14.00;99.90;;;14.53;51.83;101636.75;4944627;28;114140;-61
2022/02/10 16:37:59;;;;;;;3.77;3.10;;;14.00;99.90;;;14.52;52.14;101643.84;4942859;28;97210;-60
2022/02/10 16:40:25;;;;;;;3.37;2.67;;;13.90;99.90;;;14.49;51.82;101637.78;4961637;28;98099;-60
2022/02/10 16:42:52;;;;;;;3.90;2.00;;;13.90;99.90;;;14.46;51.93;101636.09;4941714;28;96914;-60
2022/02/10 16:45:18;;;;;;;2.90;2.37;;;13.80;99.90;;;14.48;52.08;101639.59;4957799;28;97192;-61
2022/02/10 16:47:44;;;;;;;3.17;2.53;;;13.90;99.90;;;14.49;52.13;101632.47;4958030;28;97270;-62
2022/02/10 16:50:11;;;;;;;4.70;4.07;;;13.90;99.90;;;14.44;52.21;101637.94;4956093;28;98460;-58
2022/02/10 16:52:43;;;;;;;3.20;2.90;;;13.80;99.90;;;14.42;52.28;101636.22;4959832;28;97133;-59
2022/02/10 16:55:35;;;;;;;4.80;4.23;;;13.80;99.90;;;14.38;52.17;101632.81;4959342;28;103293;-61
2022/02/10 17:01:35;;;;;;;4.67;4.20;;;13.70;99.90;;;14.34;52.59;101636.53;4970119;28;97422;-59
2022/02/10 17:14:08;;;;;;;4.53;3.40;;;13.60;99.90;;;14.20;53.01;101620.22;4939967;28;97404;-59
2022/02/10 17:14:27;;;;;;;2.63;2.43;;;13.50;99.90;;;14.18;53.24;101627.38;4942333;28;97652;-61
2022/02/10 17:27:26;;;;;;;4.77;3.67;;;13.10;99.90;;;13.89;54.07;101639.84;4908119;28;102771;-61
2022/02/10 17:46:16;;;;;;;3.73;2.30;;;13.70;99.90;;;14.28;52.99;101626.09;4927158;28;97751;-61
2022/02/10 17:53:56;;;;;;;4.50;2.77;;;13.60;99.90;;;14.33;52.88;101628.63;4949439;28;98619;-64
2022/02/10 17:56:24;;;;;;;6.03;4.03;;;13.60;99.90;;;14.38;52.72;101627.53;4945560;28;99710;-60
2022/02/10 17:58:51;;;;;;;6.23;5.63;;;13.70;99.90;;;14.46;52.29;101630.78;4938591;28;97477;-59
2022/02/10 18:01:18;;;;;;;10.53;8.57;;;13.90;99.90;;;14.52;52.31;101635.88;4916212;28;97920;-63
2022/02/10 18:03:45;;;;;;;8.33;7.53;;;14.00;99.90;;;14.60;51.95;101646.19;4928917;28;98916;-62
2022/02/10 18:08:46;;;;;;;9.40;8.10;;;14.10;99.90;;;14.67;51.76;101641.56;4946856;28;99260;-62
2022/02/10 18:16:30;;;;;;;12.63;8.50;;;14.00;99.90;;;14.42;52.38;101658.34;4948324;28;100929;-61
2022/02/10 19:05:44;;;;;;;13.77;10.87;;;13.70;99.90;;;14.28;52.36;101680.06;4871924;28;99097;-61
2022/02/10 19:08:19;;;;;;;7.93;5.67;;;13.60;99.90;;;14.26;52.65;101675.72;4897059;28;98285;-61
2022/02/10 19:10:48;;;;;;;8.07;5.97;;;13.60;99.90;;;14.21;52.85;101672.38;4907063;28;98691;-61
2022/02/10 19:13:17;;;;;;;11.27;8.97;;;13.40;99.90;;;14.13;53.04;101677.94;4884837;28;97689;-60
2022/02/10 19:15:43;;;;;;;13.50;10.90;;;13.30;99.90;;;14.18;52.75;101681.31;4915305;28;97522;-59
2022/02/10 19:18:11;;;;;;;14.17;12.63;;;13.40;99.90;;;14.27;52.71;101682.75;4932015;28;97530;-61
2022/02/10 19:20:39;;;;;;;12.43;11.00;;;13.50;99.90;;;14.32;52.56;101682.59;4919873;28;97506;-60
2022/02/10 19:23:10;;;;;;;15.53;11.40;;;13.70;99.90;;;14.29;52.44;101680.91;4906140;28;98743;-64
2022/02/10 19:25:39;;;;;;;15.10;12.17;;;13.60;99.90;;;14.31;52.74;101687.03;4861228;28;98661;-62
2022/02/10 19:28:22;;;;;;;12.07;8.70;;;13.60;99.90;;;13.98;52.14;101692.59;4913112;28;98361;-59
2022/02/10 19:30:49;;;;;;;9.50;6.07;;;13.40;99.90;;;13.95;50.90;101694.47;4930220;28;97596;-60
2022/02/10 19:33:16;;;;;;;7.93;4.97;;;13.50;99.90;;;13.93;52.92;101698.97;4921984;28;97799;-61
2022/02/10 19:35:49;;;;;;;4.77;3.63;;;13.40;99.90;;;13.50;51.35;101694.19;4922383;28;98148;-63
2022/02/10 19:38:20;;;;;;;6.17;4.13;;;13.00;99.90;;;13.48;52.48;101701.31;4922052;28;98843;-59
2022/02/10 19:40:53;;;;;;;7.07;3.93;;;12.90;99.90;;;13.31;53.68;101710.66;4944806;28;97576;-59
2022/02/10 19:43:20;;;;;;;6.30;3.90;;;12.80;99.90;;;13.02;53.55;101719.44;4911464;28;97694;-60
2022/02/10 19:45:48;;;;;;;4.20;2.20;;;12.50;99.90;;;12.83;54.54;101712.91;4904666;28;97958;-60
2022/02/10 19:48:15;;;;;;;3.40;2.80;;;12.40;99.90;;;12.86;55.26;101717.25;4918497;28;97083;-57
2022/02/10 19:50:42;;;;;;;5.53;2.53;;;12.40;99.90;;;12.90;54.43;101729.50;4924466;28;99339;-62
2022/02/10 19:53:10;;;;;;;2.40;0.90;;;12.50;99.90;;;12.78;54.85;101733.34;4895590;28;98922;-62
2022/02/10 19:55:40;;;;;;;1.80;1.33;;;12.40;99.90;;;12.64;51.13;101746.97;4858008;28;100155;-62
2022/02/10 19:58:20;;;;;;;1.20;0.83;;;12.20;99.90;;;12.56;53.92;101741.00;4879228;28;106491;-60
2022/02/10 20:01:13;;;;;;;2.73;0.70;;;12.00;99.90;;;12.44;52.90;101736.03;4892493;28;100493;-62
2022/02/10 20:03:40;;;;;;;1.60;0.80;;;12.00;99.90;;;12.52;50.01;101734.06;4815483;28;98711;-60
2022/02/10 20:06:10;;;;;;;1.37;0.60;;;12.10;99.90;;;12.64;50.21;101738.16;4883283;28;100566;-59
2022/02/10 20:08:36;;;;;;;2.03;1.00;;;12.10;99.90;;;12.68;55.49;101735.38;4878440;28;97476;-61
2022/02/10 20:11:03;;;;;;;1.67;0.83;;;12.10;99.90;;;12.88;55.10;101726.03;4873910;28;100425;-61
2022/02/10 20:13:32;;;;;;;1.90;0.70;;;12.30;99.90;;;12.88;53.66;101734.84;4895924;28;98761;-61
2022/02/10 20:16:09;;;;;;;3.60;0.97;;;12.30;99.90;;;13.01;55.02;101738.00;4905968;28;100036;-58
2022/02/10 20:18:36;;;;;;;1.83;0.67;;;12.30;99.90;;;12.99;54.54;101735.38;4935232;28;102505;-60
2022/02/10 20:21:04;;;;;;;4.23;1.10;;;12.30;99.90;;;13.08;54.25;101734.28;4916047;28;97587;-61
2022/02/10 20:23:33;;;;;;;2.13;1.00;;;12.40;99.90;;;13.18;54.30;101738.44;4909972;28;98621;-61
2022/02/10 20:26:01;;;;;;;1.13;0.70;;;12.40;99.90;;;13.09;52.83;101731.56;4906598;28;97081;-61
2022/02/10 20:28:29;;;;;;;0.80;0.53;;;12.30;99.90;;;13.10;49.82;101732.44;4911895;28;99137;-58
2022/02/10 20:31:47;;;;;;;1.70;0.83;;;12.30;99.90;;;13.21;54.00;101733.03;4909295;28;97449;-61
2022/02/10 20:34:15;;;;;;;1.80;1.10;;;12.30;99.90;;;13.10;53.94;101743.03;4854264;28;97111;-59
2022/02/10 20:36:42;;;;;;;3.17;1.20;;;12.20;99.90;;;13.13;51.50;101736.78;4920251;28;97448;-61
2022/02/10 20:39:08;;;;;;;1.20;0.90;;;12.30;99.90;;;13.09;53.49;101742.16;4907240;28;98940;-58
2022/02/10 20:41:36;;;;;;;2.23;1.30;;;12.30;99.90;;;13.20;52.65;101739.25;4929303;28;99230;-57
2022/02/10 20:44:04;;;;;;;2.90;1.30;;;12.50;99.90;;;12.99;52.52;101745.13;4930705;28;97296;-60
2022/02/10 20:46:32;;;;;;;3.43;1.13;;;12.40;99.90;;;12.88;53.32;101749.88;4915133;28;97883;-60
2022/02/10 20:49:02;;;;;;;4.57;1.67;;;12.30;99.90;;;12.78;53.37;101751.88;4923016;28;97960;-62
2022/02/10 20:51:28;;;;;;;2.43;1.10;;;12.20;99.90;;;12.92;53.71;101754.16;4925765;28;98519;-58
2022/02/10 20:53:54;;;;;;;2.50;1.10;;;12.40;99.90;;;12.85;49.27;101757.88;4924699;28;97175;-63
2022/02/10 20:56:21;;;;;;;2.87;1.20;;;12.50;99.60;;;12.56;50.92;101756.88;4913962;28;97684;-61
2022/02/10 20:58:58;;;;;;;1.87;0.93;;;12.10;99.90;;;12.33;54.31;101754.84;4930839;28;99084;-59
2022/02/10 21:01:24;;;;;;;1.87;1.20;;;11.70;99.90;;;12.58;53.25;101760.34;4905987;28;101973;-60
2022/02/10 21:03:50;;;;;;;3.27;1.40;;;12.00;99.90;;;12.23;49.93;101763.06;4892773;28;99201;-56
2022/02/10 21:09:04;;;;;;;2.93;1.20;;;11.70;99.90;;;12.27;52.61;101762.06;4928244;28;98213;-58
2022/02/10 21:12:38;;;;;;;2.20;0.90;;;11.70;99.90;;;12.64;53.47;101761.97;4926603;28;102761;-60
2022/02/10 21:15:09;;;;;;;2.60;1.70;;;12.10;99.90;;;12.78;50.74;101773.94;4926255;28;98952;-59
2022/02/10 21:17:35;;;;;;;3.63;2.20;;;12.40;99.90;;;12.80;48.46;101769.47;4943875;28;97813;-56
2022/02/10 21:20:03;;;;;;;1.57;0.90;;;12.50;99.60;;;12.52;52.66;101776.41;4922342;28;98102;-62
2022/02/10 21:22:34;;;;;;;2.30;1.10;;;12.10;99.90;;;12.60;54.36;101779.72;4937814;28;98176;-60
2022/02/10 21:25:13;;;;;;;1.17;0.70;;;12.10;99.90;;;12.84;54.11;101782.63;4922549;28;97940;-55
2022/02/10 21:27:47;;;;;;;1.40;0.93;;;12.40;99.90;;;12.35;50.70;101797.16;4914718;28;99139;-61
2022/02/10 21:30:15;;;;;;;1.33;0.70;;;11.90;99.90;;;12.25;52.09;101799.13;4899609;28;100125;-60
2022/02/10 21:32:51;;;;;;;1.70;0.97;;;11.70;99.90;;;12.23;53.51;101794.78;4924156;28;99492;-62
2022/02/10 21:37:57;;;;;;;1.50;0.70;;;11.60;99.50;;;12.04;52.76;101799.66;4911668;28;98191;-58
2022/02/10 21:44:26;;;;;;;2.03;0.90;;;11.50;99.90;;;12.36;54.21;101801.53;4930425;28;97568;-54
2022/02/10 22:12:08;;;;;;;2.23;1.10;;;12.50;99.90;;;13.28;51.91;101814.06;4927934;28;98992;-69
2022/02/10 22:17:45;;;;;;;1.83;1.00;;;13.10;97.90;;;13.50;51.52;101813.47;4907830;28;97330;-62
2022/02/10 22:20:10;;;;;;;1.43;0.93;;;13.10;99.90;;;13.55;51.15;101816.84;4924817;28;97378;-58
2022/02/10 22:22:50;;;;;;;2.57;1.10;;;13.10;99.50;;;13.53;51.23;101810.72;4912669;28;98730;-59
2022/02/10 22:25:16;;;;;;;1.77;0.90;;;12.90;99.90;;;13.54;50.89;101807.16;4913881;28;99740;-60
2022/02/10 22:27:46;;;;;;;1.60;0.90;;;12.80;98.90;;;13.55;50.96;101803.56;4944033;28;97098;-60
2022/02/10 22:30:30;;;;;;;3.43;1.10;;;12.80;99.40;;;13.42;50.37;101813.66;4921704;28;98243;-59
2022/02/10 22:33:13;;;;;;;2.47;0.80;;;12.50;99.40;;;13.39;51.33;101811.97;4942623;28;98367;-60
2022/02/10 22:35:39;;;;;;;2.23;0.80;;;12.50;99.90;;;13.38;51.71;101812.03;4940451;28;98987;-59
2022/02/10 22:38:08;;;;;;;2.63;0.83;;;12.40;99.90;;;13.55;51.49;101816.84;4935853;28;97278;-60
2022/02/10 22:40:56;;;;;;;2.00;1.07;;;12.80;99.90;;;13.63;51.07;101814.84;4924661;28;96952;-61
2022/02/10 22:43:22;;;;;;;1.80;0.90;;;13.00;99.90;;;13.82;50.85;101817.78;4914867;28;102311;-59
2022/02/10 22:45:48;;;;;;;2.07;1.30;;;13.40;99.90;;;13.78;50.73;101811.72;4929759;28;117201;-63
2022/02/10 22:48:14;;;;;;;2.33;1.10;;;13.30;99.80;;;14.02;50.42;101814.50;4909167;28;99584;-61
2022/02/10 22:50:40;;;;;;;3.37;1.50;;;13.70;99.90;;;14.03;47.70;101816.25;4930838;28;97990;-62
2022/02/10 22:53:06;;;;;;;2.83;0.93;;;13.80;96.80;;;13.88;48.93;101813.16;4913367;28;114752;-61
2022/02/10 22:55:32;;;;;;;1.00;0.50;;;13.40;97.60;;;13.80;50.56;101809.88;4914322;28;98990;-62
2022/02/10 22:57:58;;;;;;;3.43;1.07;;;13.20;99.60;;;13.65;49.73;101805.06;4926888;28;97619;-61
2022/02/10 23:00:34;;;;;;;3.77;1.03;;;12.90;99.00;;;13.42;51.01;101810.16;4912721;28;97743;-59
2022/02/10 23:03:00;;;;;;;1.90;1.03;;;12.50;99.40;;;13.31;51.79;101815.78;4910549;28;100238;-59
2022/02/10 23:05:27;;;;;;;1.40;0.70;;;12.40;99.90;;;13.23;51.25;101816.00;4911189;28;101616;-57
2022/02/10 23:07:59;;;;;;;3.03;0.97;;;12.30;99.90;;;13.04;52.32;101817.41;4911306;28;99125;-60
2022/02/10 23:13:04;;;;;;;2.77;1.27;;;12.00;99.90;;;12.82;51.48;101793.25;4925526;28;98302;-58
2022/02/10 23:15:36;;;;;;;3.40;0.90;;;11.90;99.90;;;12.69;52.75;101800.66;4930622;28;98492;-56
2022/02/10 23:18:14;;;;;;;3.77;1.30;;;11.70;99.90;;;12.58;52.05;101810.63;4926248;28;98717;-60
2022/02/10 23:20:41;;;;;;;2.03;0.90;;;11.60;99.90;;;12.40;53.18;101813.75;4912251;28;100173;-60
2022/02/10 23:23:09;;;;;;;2.87;0.80;;;11.40;99.90;;;12.33;52.44;101806.91;4907434;28;97635;-59
2022/02/10 23:25:41;;;;;;;1.70;0.80;;;11.30;99.90;;;12.32;54.33;101802.53;4911667;28;99516;-61
2022/02/10 23:28:12;;;;;;;2.97;1.20;;;11.30;99.90;;;12.26;53.60;101794.72;4926784;28;98438;-62
2022/02/10 23:30:39;;;;;;;0.70;0.70;;;11.30;99.90;;;12.32;54.41;101798.09;4929221;28;98939;-59
2022/02/10 23:33:16;;;;;;;2.00;1.03;;;11.30;99.90;;;12.12;54.56;101803.84;4908534;28;97812;-59
2022/02/10 23:38:26;;;;;;;3.17;1.33;;;11.10;99.90;;;12.17;54.44;101801.97;4927041;28;97486;-62
2022/02/10 23:43:36;;;;;;;2.27;1.00;;;11.00;99.90;;;12.04;55.44;101805.81;4927112;28;101547;-59
2022/02/10 23:46:02;;;;;;;1.57;1.03;;;11.00;99.90;;;11.82;53.16;101805.44;4910350;28;98848;-60
2022/02/10 23:48:31;;;;;;;2.37;1.20;;;10.90;99.90;;;11.73;52.15;101810.03;4928590;28;97145;-61
2022/02/10 23:50:58;;;;;;;2.13;1.10;;;10.90;99.90;;;11.68;55.07;101811.91;4909391;28;98388;-57
2022/02/10 23:53:24;;;;;;;2.80;1.10;;;10.70;99.90;;;11.71;54.72;101806.53;4909247;28;98415;-62
2022/02/10 23:55:50;;;;;;;3.67;1.20;;;10.80;99.90;;;11.57;51.96;101799.81;4924254;28;98735;-57
2022/02/10 23:58:36;;;;;;;2.00;0.80;;;10.70;99.90;;;11.71;56.11;101801.25;4908222;28;98975;-62
